• Join FlightAware (Why Join?)
  • Login
  • US Flag 
12:48AM EDT


 

Airport Tracker/Info


-or-


 

Live Flight TrackerFlight Track Log ✈ N311JE ✈ 04-Jul-2013 ✈ 68IS - KBKL

Flight Track Log - Related Links

Times and Time Zones

All times are in EDT time to prevent confusion due to time zone crossing. See the N311JE flight status page for this flight to view local times or setup timezone preferences in your user account.

Time Position Orientation Groundspeed Altitude Reporting Facility
EDT Latitude Longitude Course Direction KTS MPH feet Rate Location/Type
12:13PM 42.1333 -88.5500 90° East 111 128 2,600  Level Chicago TRACON
12:14PM 42.1333 -88.5000 90° East 147 169 2,700 180 Climbing Chicago TRACON
12:15PM 42.1500 -88.4333 71° East 146 168 3,000 120 Climbing Chicago TRACON
12:16PM 42.1667 -88.3833 66° East 156 180 3,000  Level Chicago TRACON
12:17PM 42.1667 -88.3333 90° East 160 184 3,000 -60 Level Chicago TRACON
12:18PM 42.1833 -88.2667 71° East 158 182 2,900 -60 Descending Chicago TRACON
12:19PM 42.2000 -88.2167 66° East 160 184 2,900  Level Chicago TRACON
12:20PM 42.2167 -88.1667 66° East 156 180 3,000 240 Climbing Chicago TRACON
12:21PM 42.2333 -88.1000 71° East 152 175 3,400 660 Climbing Chicago TRACON
12:22PM 42.2500 -88.0667 56° Northeast 124 143 4,400 900 Climbing Chicago TRACON
12:23PM 42.2500 -88.0167 90° East 131 151 5,200 780 Climbing Chicago TRACON
12:24PM 42.2500 -87.9667 90° East 131 151 6,000 780 Climbing Chicago TRACON
12:25PM 42.2500 -87.9167 90° East 135 155 6,800 660 Climbing Chicago TRACON
12:25PM 42.2497 -87.9017 91° East 132 152 7,000 600 Climbing Chicago Center
12:26PM 42.2500 -87.8375 90° East 140 161 7,800 660 Climbing Chicago Center
12:27PM 42.2522 -87.7856 87° East 140 161 8,400 480 Climbing Chicago Center
12:28PM 42.2531 -87.7308 89° East 146 168 8,900 540 Climbing Chicago Center
12:29PM 42.2461 -87.6800 100° East 139 160 9,600 540 Climbing Chicago Center
12:30PM 42.2406 -87.6292 98° East 138 159 10,100 480 Climbing Chicago Center
12:31PM 42.2356 -87.5661 96° East 141 162 10,700 480 Climbing Chicago Center
12:32PM 42.2308 -87.5156 97° East 137 158 11,100 120 Climbing Chicago Center
12:33PM 42.2253 -87.4564 97° East 155 178 11,000  Descending Chicago Center
12:34PM 42.2189 -87.3956 98° East 163 188 11,100  Climbing Chicago Center
12:35PM 42.2131 -87.3322 97° East 168 193 11,100  Level Chicago Center
12:36PM 42.2072 -87.2703 97° East 168 193 11,100 -60 Level Chicago Center
12:37PM 42.2003 -87.1969 97° East 167 192 11,000 -60 Descending Chicago Center
12:38PM 42.1939 -87.1342 98° East 169 194 11,000  Level Chicago Center
12:40PM 42.1881 -87.0728 97° East 167 192 11,000  Level Chicago Center
12:41PM 42.1811 -87.0094 98° East 169 194 11,100  Climbing Chicago Center
12:42PM 42.1750 -86.9481 98° East 167 192 11,100  Level Chicago Center
12:43PM 42.1694 -86.8864 97° East 167 192 11,100  Level Chicago Center
12:44PM 42.1625 -86.8133 97° East 165 190 11,100  Level Chicago Center
12:45PM 42.1561 -86.7531 98° East 164 189 11,100  Level Chicago Center
12:46PM 42.1506 -86.6903 97° East 162 186 11,100  Level Chicago Center
12:47PM 42.1436 -86.6283 99° East 161 185 11,100  Level Chicago Center
12:48PM 42.1375 -86.5681 98° East 161 185 11,100  Level Chicago Center
12:49PM 42.1317 -86.5086 98° East 161 185 11,100  Level Chicago Center
12:50PM 42.1247 -86.4486 99° East 163 188 11,100  Level Chicago Center
12:51PM 42.1189 -86.3897 98° East 160 184 11,100  Level Chicago Center
12:52PM 42.1125 -86.3278 98° East 165 190 11,100  Level Chicago Center
12:53PM 42.1033 -86.2542 100° East 167 192 11,100  Level Chicago Center
12:54PM 42.0942 -86.1931 101° East 167 192 11,100  Level Chicago Center
12:55PM 42.0867 -86.1344 100° East 161 185 11,100  Level Chicago Center
12:56PM 42.0822 -86.0714 95° East 168 193 11,100  Level Chicago Center
12:57PM 42.0747 -86.0108 99° East 166 191 11,100  Level Chicago Center
12:58PM 42.0675 -85.9433 98° East 164 189 11,100  Level Chicago Center
12:59PM 42.0614 -85.8828 98° East 164 189 11,100  Level Chicago Center
01:00PM 42.0561 -85.8217 97° East 165 190 11,100  Level Chicago Center
01:01PM 42.0475 -85.7606 101° East 167 192 11,100  Level Chicago Center
01:02PM 42.0414 -85.7014 98° East 162 186 11,100  Level Chicago Center
01:03PM 42.0331 -85.6272 99° East 167 192 11,100  Level Chicago Center
01:04PM 42.0264 -85.5686 99° East 162 186 11,100  Level Chicago Center
01:05PM 42.0189 -85.5067 99° East 166 191 11,100  Level Chicago Center
01:06PM 42.0133 -85.4483 97° East 161 185 11,100  Level Chicago Center
01:07PM 42.0064 -85.3869 99° East 165 190 11,100  Level Chicago Center
01:08PM 41.9992 -85.3267 99° East 165 190 11,100  Level Chicago Center
01:09PM 41.9911 -85.2592 99° East 164 189 11,100  Level Chicago Center
01:10PM 41.9850 -85.1989 98° East 163 188 11,100  Level Chicago Center
01:12PM 41.9775 -85.1378 99° East 164 189 11,100  Level Chicago Center
01:13PM 41.9700 -85.0783 100° East 163 188 11,100  Level Chicago Center
01:14PM 41.9622 -85.0044 98° East 165 190 11,100  Level Chicago Center
01:15PM 41.9550 -84.9442 99° East 164 189 11,100  Level Chicago Center
01:16PM 41.9464 -84.8831 101° East 165 190 11,100  Level Chicago Center
01:17PM 41.9403 -84.8208 98° East 167 192 11,100  Level Chicago Center
01:18PM 41.9331 -84.7592 99° East 167 192 11,100  Level Chicago Center
01:19PM 41.9250 -84.6983 100° East 166 191 11,100  Level Chicago Center
01:20PM 41.9189 -84.6375 98° East 165 190 11,100  Level Chicago Center
01:21PM 41.9092 -84.5639 100° East 166 191 11,100  Level Chicago Center
01:22PM 41.9011 -84.5033 100° East 166 191 11,100 -60 Level Chicago Center
01:23PM 41.8942 -84.4419 99° East 166 191 11,000  Descending Chicago Center
01:24PM 41.8847 -84.3711 100° East 162 186 11,100  Climbing Cleveland Center
01:25PM 41.8786 -84.3092 98° East 162 186 11,100  Level Cleveland Center
01:26PM 41.8717 -84.2669 102° East 161 185 11,100 -120 Level Cleveland Center
01:27PM 41.8628 -84.2136 103° East 163 188 11,000  Descending Cleveland Center
01:28PM 41.8547 -84.1433 99° East 166 191 11,100  Climbing Cleveland Center
01:29PM 41.8481 -84.0817 98° East 167 192 11,100  Level Cleveland Center
01:30PM 41.8433 -84.0394 99° East 167 192 11,100  Level Cleveland Center
01:30PM 41.8397 -84.0144 101° East 167 192 11,100  Level Cleveland Center
01:31PM 41.8367 -83.9781 96° East 169 194 11,100  Level Cleveland Center
01:31PM 41.8314 -83.9497 104° East 167 192 11,100  Level Cleveland Center
01:32PM 41.8283 -83.9078 96° East 169 194 11,100  Level Cleveland Center
01:33PM 41.8175 -83.8458 103° East 172 198 11,100  Level Cleveland Center
01:34PM 41.8075 -83.7619 99° East 181 208 11,100  Level Cleveland Center
01:35PM 41.7986 -83.7028 101° East 181 208 11,100  Level Cleveland Center
01:36PM 41.7900 -83.6411 101° East 169 194 11,100 -60 Level Cleveland Center
01:37PM 41.7831 -83.5822 99° East 163 188 11,000  Descending Cleveland Center
01:38PM 41.7764 -83.5208 98° East 163 188 11,100  Climbing Cleveland Center
01:39PM 41.7653 -83.4617 104° East 163 188 11,000  Descending Cleveland Center
01:40PM 41.7586 -83.4031 99° East 163 188 11,100  Climbing Cleveland Center
01:41PM 41.7517 -83.3414 99° East 163 188 11,000 -360 Descending Cleveland Center
01:42PM 41.7406 -83.2769 103° East 163 188 10,400 -600 Descending Cleveland Center
01:43PM 41.7317 -83.2125 100° East 168 193 9,900 -600 Descending Cleveland Center
01:44PM 41.7231 -83.1344 98° East 181 208 9,200 -480 Descending Cleveland Center
01:45PM 41.7119 -83.0672 102° East 181 208 9,000 -180 Descending Cleveland Center
01:46PM 41.7050 -83.0058 99° East 176 203 8,900 -60 Descending Cleveland Center
01:47PM 41.6978 -82.9469 99° East 171 197 8,900  Level Cleveland Center
01:48PM 41.6886 -82.8856 101° East 166 191 8,900  Level Cleveland Center
01:49PM 41.6817 -82.8242 99° East 166 191 8,900  Level Cleveland Center
01:50PM 41.6703 -82.7681 105° East 165 190 8,900  Level Cleveland Center
01:51PM 41.6650 -82.7067 97° East 161 185 8,900 -60 Level Cleveland Center
01:52PM 41.6558 -82.6453 101° East 161 185 8,800 -420 Descending Cleveland Center
01:53PM 41.6444 -82.5756 102° East 172 198 8,100 -600 Descending Cleveland Center
01:54PM 41.6372 -82.5169 99° East 177 204 7,700 -540 Descending Cleveland Center
01:55PM 41.6278 -82.4500 101° East 182 209 7,100 -660 Descending Cleveland Center
01:56PM 41.6164 -82.3803 102° East 182 209 6,400 -660 Descending Cleveland Center
01:57PM 41.6072 -82.3133 100° East 182 209 5,800 -660 Descending Cleveland Center
01:58PM 41.5997 -82.2575 100° East 182 209 5,300 -780 Descending Cleveland Center
01:59PM 41.5900 -82.1961 102° East 176 203 4,500 -780 Descending Cleveland Center
02:00PM 41.5844 -82.1406 98° East 156 180 3,900 -540 Descending Cleveland Center
02:01PM 41.5731 -82.0736 103° East 174 200 3,400 -420 Descending Cleveland Center
02:02PM 41.5633 -82.0094 101° East 170 196 3,100 -480 Descending Cleveland Center
02:03PM 41.5539 -81.9400 100° East 170 196 2,500 -600 Descending Cleveland Center
02:04PM 41.5544 -81.8844 89° East 177 204 2,000 -480 Descending Cleveland Center
02:05PM 41.5531 -81.8233 92° East 159 183 1,600 -180 Descending Cleveland Center
02:06PM 41.5556 -81.7681 87° East 137 158 1,700 -60 Climbing Cleveland Center
02:07PM 41.5561 -81.7181 89° East 112 129 1,500 -180 Descending Cleveland Center
02:08PM 41.5586 -81.6736 86° East 112 129 1,400 -240 Descending Cleveland Center
02:09PM 41.5339 -81.6594 157° South 78 90 1,100 -300 Descending Cleveland Center
02:11PM 41.5167 -81.6667 90° East  Level FlightAware Approximate
02:18PM 41.5175 -81.6833 90° East  Level Estimated